Terminal Aerodrome Forecast
Issued by NWS

Current Version | Previous Version | Text Only | Print | Product List | Glossary On
Versions: 1 2 3 4 5 6 7 8 9 10 11 12 13 14 15 16 17 18 19 20
138
FTUS46 KSEW 242342
TAFCLM
TAF
KCLM 242342Z 2500/2524 29011KT P6SM SKC
     FM251200 29006KT P6SM VCFG BKN006
     FM251800 32010KT P6SM SCT250=

USA.gov is the U.S. government's official web portal to all federal, state and local government web resources and services.